createdAt,value
2023-03-23T00:00:26.870Z,0.00
2023-03-23T00:01:26.786Z,0.00
2023-03-23T00:02:26.797Z,0.00
2023-03-23T00:03:26.776Z,0.00
2023-03-23T00:04:26.782Z,0.00
2023-03-23T00:05:26.761Z,0.00
2023-03-23T00:06:26.782Z,0.00
2023-03-23T00:07:26.754Z,0.00
2023-03-23T00:08:26.759Z,0.00
2023-03-23T00:09:26.731Z,0.00
2023-03-23T00:10:26.734Z,0.00
2023-03-23T00:11:26.725Z,0.00
2023-03-23T00:12:26.753Z,0.00
2023-03-23T00:13:27.703Z,0.00
2023-03-23T00:14:26.694Z,0.00
2023-03-23T00:15:26.726Z,0.00
2023-03-23T00:16:26.691Z,0.00
2023-03-23T00:17:26.722Z,0.00
2023-03-23T00:18:26.803Z,0.00
2023-03-23T00:19:26.784Z,0.00
2023-03-23T00:20:26.700Z,0.00
2023-03-23T00:21:26.670Z,0.00
2023-03-23T00:22:26.670Z,0.00
2023-03-23T00:23:26.655Z,0.00
2023-03-23T00:24:26.653Z,0.00
2023-03-23T00:25:26.713Z,0.00
2023-03-23T00:26:26.601Z,0.00
2023-03-23T00:27:26.599Z,0.00
2023-03-23T00:28:26.572Z,0.00
2023-03-23T00:29:26.575Z,0.00
2023-03-23T00:30:26.643Z,0.00
2023-03-23T00:31:26.570Z,0.00
2023-03-23T00:32:26.587Z,0.00
2023-03-23T00:33:26.555Z,0.00
2023-03-23T00:34:26.562Z,0.00
2023-03-23T00:35:26.533Z,0.00
2023-03-23T00:36:26.599Z,0.00
2023-03-23T00:37:26.528Z,0.00
2023-03-23T00:38:26.492Z,0.00
2023-03-23T00:39:26.510Z,0.00
2023-03-23T00:40:26.533Z,0.00
2023-03-23T00:41:26.500Z,0.00
2023-03-23T00:42:26.517Z,0.00
2023-03-23T00:43:26.472Z,0.00
2023-03-23T00:44:26.472Z,0.00
2023-03-23T00:45:26.444Z,0.00
2023-03-23T00:46:26.452Z,0.00
2023-03-23T00:47:26.481Z,0.00
2023-03-23T00:48:26.686Z,0.00
2023-03-23T00:49:26.441Z,0.00
2023-03-23T00:50:33.768Z,0.00
2023-03-23T00:51:27.456Z,0.00
2023-03-23T00:52:26.400Z,0.00
2023-03-23T00:53:26.452Z,0.00
2023-03-23T00:54:26.423Z,0.00
2023-03-23T00:55:26.395Z,0.00
2023-03-23T00:56:26.379Z,0.00
2023-03-23T00:57:26.385Z,0.00
2023-03-23T00:58:26.382Z,0.00
2023-03-23T00:59:26.373Z,0.00
2023-03-23T01:00:26.473Z,0.00
2023-03-23T01:01:26.365Z,0.00
2023-03-23T01:02:26.356Z,0.00
2023-03-23T01:03:26.338Z,0.00
2023-03-23T01:04:26.351Z,0.00
2023-03-23T01:05:26.326Z,0.00
2023-03-23T01:06:26.344Z,0.00
2023-03-23T01:07:26.304Z,0.00
2023-03-23T01:08:26.316Z,0.00
2023-03-23T01:09:26.282Z,0.00
2023-03-23T01:10:26.285Z,0.00
2023-03-23T01:11:26.266Z,0.00
2023-03-23T01:12:26.343Z,0.00
2023-03-23T01:13:26.291Z,0.00
2023-03-23T01:14:26.244Z,0.00
2023-03-23T01:15:26.264Z,0.00
2023-03-23T01:16:26.233Z,0.00
2023-03-23T01:17:26.244Z,0.00
2023-03-23T01:18:33.802Z,0.00
2023-03-23T01:19:27.232Z,0.00
2023-03-23T01:20:26.230Z,0.00
2023-03-23T01:21:26.192Z,0.00
2023-03-23T01:22:26.216Z,0.00
2023-03-23T01:23:26.212Z,0.00
2023-03-23T01:24:26.226Z,0.00
2023-03-23T01:25:26.192Z,0.00
2023-03-23T01:26:26.187Z,0.00
2023-03-23T01:27:26.178Z,0.00
2023-03-23T01:28:26.146Z,0.00
2023-03-23T01:29:26.141Z,0.00
2023-03-23T01:30:26.183Z,0.00
2023-03-23T01:31:26.120Z,0.00
2023-03-23T01:32:26.114Z,0.00
2023-03-23T01:33:26.135Z,0.00
2023-03-23T01:34:26.115Z,0.00
2023-03-23T01:35:26.097Z,0.00
2023-03-23T01:36:26.155Z,0.00
2023-03-23T01:37:26.130Z,0.00
2023-03-23T01:38:26.094Z,0.00
2023-03-23T01:39:26.075Z,0.00
2023-03-23T01:40:26.103Z,0.00
2023-03-23T01:41:26.091Z,0.00
2023-03-23T01:42:26.074Z,0.00
2023-03-23T01:43:26.044Z,0.00
2023-03-23T01:44:26.067Z,0.00
2023-03-23T01:45:26.034Z,0.00
2023-03-23T01:46:26.038Z,0.00
2023-03-23T01:47:26.057Z,0.00
2023-03-23T01:48:26.066Z,0.00
2023-03-23T01:49:25.995Z,0.00
2023-03-23T01:50:25.987Z,0.00
2023-03-23T01:51:36.590Z,0.00
2023-03-23T01:52:26.984Z,0.00
2023-03-23T01:53:25.961Z,0.00
2023-03-23T01:54:26.201Z,0.00
2023-03-23T01:55:25.949Z,0.00
2023-03-23T01:56:25.976Z,0.00
2023-03-23T01:57:25.967Z,0.00
2023-03-23T01:58:25.941Z,0.00
2023-03-23T01:59:25.979Z,0.00
2023-03-23T02:00:25.968Z,0.00
2023-03-23T02:01:25.916Z,0.00
2023-03-23T02:02:25.934Z,0.00
2023-03-23T02:03:25.906Z,0.00
2023-03-23T02:04:25.894Z,0.00
2023-03-23T02:05:25.870Z,0.00
2023-03-23T02:06:25.947Z,0.00
2023-03-23T02:07:25.866Z,0.00
2023-03-23T02:08:25.897Z,0.00
2023-03-23T02:09:25.847Z,0.00
2023-03-23T02:10:25.864Z,0.00
2023-03-23T02:11:25.836Z,0.00
2023-03-23T02:12:25.898Z,0.00
2023-03-23T02:13:25.813Z,0.00
2023-03-23T02:14:25.847Z,0.00
2023-03-23T02:15:25.817Z,0.00
2023-03-23T02:16:25.815Z,0.00
2023-03-23T02:17:25.830Z,0.00
2023-03-23T02:18:25.842Z,0.00
2023-03-23T02:19:25.792Z,0.00
2023-03-23T02:20:25.798Z,0.00
2023-03-23T02:21:25.764Z,0.00
2023-03-23T02:22:25.750Z,0.00
2023-03-23T02:23:25.777Z,0.00
2023-03-23T02:24:25.806Z,0.00
2023-03-23T02:25:25.744Z,0.00
2023-03-23T02:26:25.740Z,0.00
2023-03-23T02:27:25.758Z,0.00
2023-03-23T02:28:25.701Z,0.00
2023-03-23T02:29:25.715Z,0.00
2023-03-23T02:30:26.764Z,0.00
2023-03-23T02:31:25.703Z,0.00
2023-03-23T02:32:25.715Z,0.00
2023-03-23T02:33:25.700Z,0.00
2023-03-23T02:34:25.668Z,0.00
2023-03-23T02:35:25.675Z,0.00
2023-03-23T02:36:25.700Z,0.00
2023-03-23T02:37:25.666Z,0.00
2023-03-23T02:38:25.670Z,0.00
2023-03-23T02:39:25.635Z,0.00
2023-03-23T02:40:25.647Z,0.00
2023-03-23T02:41:25.625Z,0.00
2023-03-23T02:42:25.745Z,0.00
2023-03-23T02:43:26.402Z,0.00
2023-03-23T02:44:26.600Z,0.00
2023-03-23T02:45:25.577Z,0.00
2023-03-23T02:46:25.593Z,0.00
2023-03-23T02:47:25.596Z,0.00
2023-03-23T02:48:25.643Z,0.00
2023-03-23T02:49:25.552Z,0.00
2023-03-23T02:50:25.561Z,0.00
2023-03-23T02:51:25.582Z,0.00
2023-03-23T02:52:25.537Z,0.00
2023-03-23T02:53:25.535Z,0.00
2023-03-23T02:54:25.594Z,0.00
2023-03-23T02:55:25.522Z,0.00
2023-03-23T02:56:25.550Z,0.00
2023-03-23T02:57:25.501Z,0.00
2023-03-23T02:58:26.491Z,0.00
2023-03-23T02:59:25.483Z,0.00
2023-03-23T03:00:26.084Z,0.00
2023-03-23T03:01:25.484Z,0.00
2023-03-23T03:02:25.501Z,0.00
2023-03-23T03:03:25.450Z,0.00
2023-03-23T03:04:25.467Z,0.00
2023-03-23T03:05:25.452Z,0.00
2023-03-23T03:06:25.464Z,0.00
2023-03-23T03:07:25.446Z,0.00
2023-03-23T03:08:25.421Z,0.00
2023-03-23T03:09:25.424Z,0.00
2023-03-23T03:10:25.413Z,0.00
2023-03-23T03:11:25.403Z,0.00
2023-03-23T03:12:25.414Z,0.00
2023-03-23T03:13:25.382Z,0.00
2023-03-23T03:14:25.402Z,0.00
2023-03-23T03:15:25.388Z,0.00
2023-03-23T03:16:25.365Z,0.00
2023-03-23T03:17:25.385Z,0.00
2023-03-23T03:18:25.398Z,0.00
2023-03-23T03:19:25.365Z,0.00
2023-03-23T03:20:25.341Z,0.00
2023-03-23T03:21:25.329Z,0.00
2023-03-23T03:22:25.322Z,0.00
2023-03-23T03:23:25.318Z,0.00
2023-03-23T03:24:25.327Z,0.00
2023-03-23T03:25:25.309Z,0.00
2023-03-23T03:26:25.298Z,0.00
2023-03-23T03:27:25.282Z,0.00
2023-03-23T03:28:25.278Z,0.00
2023-03-23T03:29:25.287Z,0.00
2023-03-23T03:30:25.326Z,0.00
2023-03-23T03:31:25.243Z,0.00
2023-03-23T03:32:25.265Z,0.00
2023-03-23T03:33:25.263Z,0.00
2023-03-23T03:34:25.236Z,0.00
2023-03-23T03:35:25.230Z,0.00
2023-03-23T03:36:25.273Z,0.00
2023-03-23T03:37:25.222Z,0.00
2023-03-23T03:38:25.208Z,0.00
2023-03-23T03:39:25.226Z,0.00
2023-03-23T03:40:25.193Z,0.00
2023-03-23T03:41:25.190Z,0.00
2023-03-23T03:42:25.239Z,0.00
2023-03-23T03:43:25.182Z,0.00
2023-03-23T03:44:25.173Z,0.00
2023-03-23T03:45:25.171Z,0.00
2023-03-23T03:46:25.141Z,0.00
2023-03-23T03:47:25.176Z,0.00
2023-03-23T03:48:25.169Z,0.00
2023-03-23T03:49:25.135Z,0.00
2023-03-23T03:50:25.155Z,0.00
2023-03-23T03:51:27.065Z,0.00
2023-03-23T03:52:25.115Z,0.00
2023-03-23T03:53:28.732Z,0.00
2023-03-23T03:54:25.131Z,0.00
2023-03-23T03:55:25.088Z,0.00
2023-03-23T03:56:25.084Z,0.00
2023-03-23T03:57:25.062Z,0.00
2023-03-23T03:58:25.061Z,0.00
2023-03-23T03:59:25.071Z,0.00
2023-03-23T04:00:25.070Z,0.00
2023-03-23T04:01:25.047Z,0.00
2023-03-23T04:02:25.038Z,0.00
2023-03-23T04:03:25.046Z,0.00
2023-03-23T04:04:25.042Z,0.00
2023-03-23T04:05:25.014Z,0.00
2023-03-23T04:06:25.248Z,0.00
2023-03-23T04:07:24.990Z,0.00
2023-03-23T04:08:25.004Z,0.00
2023-03-23T04:09:24.996Z,0.00
2023-03-23T04:10:32.833Z,0.00
2023-03-23T04:11:33.276Z,0.00
2023-03-23T04:12:25.972Z,0.00
2023-03-23T04:13:24.967Z,0.00
2023-03-23T04:14:24.957Z,0.00
2023-03-23T04:15:24.943Z,0.00
2023-03-23T04:16:24.916Z,0.00
2023-03-23T04:17:24.940Z,0.00
2023-03-23T04:18:24.947Z,0.00
2023-03-23T04:19:24.915Z,0.00
2023-03-23T04:20:31.411Z,0.00
2023-03-23T04:21:25.921Z,0.00
2023-03-23T04:22:24.886Z,0.00
2023-03-23T04:23:24.926Z,0.00
2023-03-23T04:24:56.351Z,0.00
2023-03-23T04:25:25.882Z,0.00
2023-03-23T04:26:24.847Z,0.00
2023-03-23T04:27:24.863Z,0.00
2023-03-23T04:28:24.854Z,0.00
2023-03-23T04:29:24.879Z,0.00
2023-03-23T04:30:24.849Z,0.00
2023-03-23T04:31:24.826Z,0.00
2023-03-23T04:32:24.823Z,0.00
2023-03-23T04:33:24.826Z,0.00
2023-03-23T04:34:25.860Z,0.00
2023-03-23T04:35:24.788Z,0.00
2023-03-23T04:36:24.822Z,0.00
2023-03-23T04:37:25.795Z,0.00
2023-03-23T04:38:24.770Z,0.00
2023-03-23T04:39:24.764Z,0.00
2023-03-23T04:40:24.835Z,0.00
2023-03-23T04:41:24.757Z,0.00
2023-03-23T04:42:24.752Z,0.00
2023-03-23T04:43:24.745Z,0.00
2023-03-23T04:44:24.736Z,0.00
2023-03-23T04:45:24.727Z,0.00
2023-03-23T04:46:24.765Z,0.00
2023-03-23T04:47:24.732Z,0.00
2023-03-23T04:48:24.721Z,0.00
2023-03-23T04:49:24.688Z,0.00
2023-03-23T04:50:24.688Z,0.00
2023-03-23T04:51:24.689Z,0.00
2023-03-23T04:52:24.710Z,0.00
2023-03-23T04:53:24.645Z,0.00
2023-03-23T04:54:24.666Z,0.00
2023-03-23T04:55:24.659Z,0.00
2023-03-23T04:56:24.631Z,0.00
2023-03-23T04:57:24.652Z,1.00
2023-03-23T04:58:24.669Z,1.00
2023-03-23T04:59:24.637Z,1.00
2023-03-23T05:00:24.635Z,1.00
2023-03-23T05:01:24.597Z,1.00
2023-03-23T05:02:24.601Z,1.00
2023-03-23T05:03:24.571Z,1.00
2023-03-23T05:04:24.617Z,2.00
2023-03-23T05:05:24.570Z,2.00
2023-03-23T05:06:24.578Z,2.00
2023-03-23T05:07:24.548Z,2.00
2023-03-23T05:08:24.573Z,3.00
2023-03-23T05:09:24.560Z,3.00
2023-03-23T05:10:24.952Z,3.00
2023-03-23T05:11:24.558Z,4.00
2023-03-23T05:12:24.534Z,5.00
2023-03-23T05:13:24.514Z,7.00
2023-03-23T05:14:24.570Z,9.00
2023-03-23T05:15:24.495Z,10.00
2023-03-23T05:16:24.541Z,12.00
2023-03-23T05:17:24.497Z,13.00
2023-03-23T05:18:24.551Z,17.00
2023-03-23T05:19:24.478Z,16.00
2023-03-23T05:20:24.458Z,18.00
2023-03-23T05:21:24.473Z,19.00
2023-03-23T05:22:24.507Z,20.00
2023-03-23T05:23:24.429Z,20.00
2023-03-23T05:24:24.443Z,23.00
2023-03-23T05:25:24.435Z,23.00
2023-03-23T05:26:24.423Z,24.00
2023-03-23T05:27:24.394Z,23.00
2023-03-23T05:28:24.488Z,24.00
2023-03-23T05:29:24.390Z,27.00
2023-03-23T05:30:24.405Z,27.00
2023-03-23T05:31:24.397Z,33.00
2023-03-23T05:32:24.461Z,36.00
2023-03-23T05:33:24.364Z,39.00
2023-03-23T05:34:24.396Z,43.00
2023-03-23T05:35:24.372Z,45.00
2023-03-23T05:36:24.365Z,46.00
2023-03-23T05:37:24.333Z,48.00
2023-03-23T05:38:24.360Z,42.00
2023-03-23T05:39:24.333Z,42.00
2023-03-23T05:40:24.356Z,50.00
2023-03-23T05:41:24.303Z,54.00
2023-03-23T05:42:24.304Z,53.00
2023-03-23T05:43:24.294Z,57.00
2023-03-23T05:44:24.284Z,63.00
2023-03-23T05:45:24.274Z,67.00
2023-03-23T05:46:24.320Z,79.00
2023-03-23T05:47:24.270Z,88.00
2023-03-23T05:48:24.262Z,96.00
2023-03-23T05:49:24.254Z,105.00
2023-03-23T05:50:24.263Z,106.00
2023-03-23T05:51:24.248Z,119.00
2023-03-23T05:52:24.287Z,139.00
2023-03-23T05:53:24.237Z,159.00
2023-03-23T05:54:24.234Z,174.00
2023-03-23T05:55:24.223Z,178.00
2023-03-23T05:56:24.216Z,162.00
2023-03-23T05:57:24.184Z,134.00
2023-03-23T05:58:24.223Z,126.00
2023-03-23T05:59:24.173Z,118.00
2023-03-23T06:00:24.188Z,91.00
2023-03-23T06:01:24.152Z,82.00
2023-03-23T06:02:24.153Z,78.00
2023-03-23T06:03:24.176Z,74.00
2023-03-23T06:04:24.167Z,77.00
2023-03-23T06:05:24.169Z,79.00
2023-03-23T06:06:24.127Z,98.00
2023-03-23T06:07:24.127Z,100.00
2023-03-23T06:08:24.121Z,130.00
2023-03-23T06:09:24.116Z,129.00
2023-03-23T06:10:24.122Z,150.00
2023-03-23T06:11:24.108Z,172.00
2023-03-23T06:12:24.087Z,151.00
2023-03-23T06:13:24.074Z,159.00
2023-03-23T06:14:24.059Z,157.00
2023-03-23T06:15:24.050Z,156.00
2023-03-23T06:16:24.453Z,190.00
2023-03-23T06:17:24.068Z,224.00
2023-03-23T06:18:24.021Z,257.00
2023-03-23T06:19:24.026Z,294.00
2023-03-23T06:20:24.032Z,350.00
2023-03-23T06:21:24.024Z,411.00
2023-03-23T06:22:24.031Z,414.00
2023-03-23T06:23:23.995Z,428.00
2023-03-23T06:24:23.983Z,469.00
2023-03-23T06:25:23.997Z,458.00
2023-03-23T06:26:23.986Z,469.00
2023-03-23T06:27:23.966Z,485.00
2023-03-23T06:28:23.993Z,518.00
2023-03-23T06:29:23.956Z,579.00
2023-03-23T06:30:23.968Z,650.00
2023-03-23T06:31:23.975Z,725.00
2023-03-23T06:32:23.982Z,787.00
2023-03-23T06:33:23.957Z,851.00
2023-03-23T06:34:23.955Z,829.00
2023-03-23T06:35:23.931Z,767.00
2023-03-23T06:36:23.983Z,700.00
2023-03-23T06:37:24.439Z,651.00
2023-03-23T06:38:24.398Z,630.00
2023-03-23T06:39:23.879Z,625.00
2023-03-23T06:40:23.920Z,635.00
2023-03-23T06:41:23.867Z,649.00
2023-03-23T06:42:23.888Z,664.00
2023-03-23T06:43:23.856Z,674.00
2023-03-23T06:44:23.858Z,681.00
2023-03-23T06:45:23.861Z,699.00
2023-03-23T06:46:23.868Z,723.00
2023-03-23T06:47:23.828Z,743.00
2023-03-23T06:48:23.829Z,738.00
2023-03-23T06:49:23.839Z,711.00
2023-03-23T06:50:23.799Z,689.00
2023-03-23T06:51:23.811Z,677.00
2023-03-23T06:52:23.828Z,670.00
2023-03-23T06:53:23.817Z,671.00
2023-03-23T06:54:23.771Z,688.00
2023-03-23T06:55:23.785Z,707.00
2023-03-23T06:56:23.804Z,734.00
2023-03-23T06:57:23.769Z,771.00
2023-03-23T06:58:23.795Z,786.00
2023-03-23T06:59:23.732Z,754.00
2023-03-23T07:00:23.776Z,692.00
2023-03-23T07:01:23.744Z,646.00
2023-03-23T07:02:23.716Z,647.00
2023-03-23T07:03:23.707Z,677.00
2023-03-23T07:04:23.749Z,713.00
2023-03-23T07:05:23.709Z,743.00
2023-03-23T07:06:29.186Z,771.00
2023-03-23T07:07:23.717Z,824.00
2023-03-23T07:08:23.679Z,866.00
2023-03-23T07:09:31.024Z,853.00
2023-03-23T07:10:24.704Z,793.00
2023-03-23T07:11:23.664Z,729.00
2023-03-23T07:12:23.661Z,672.00
2023-03-23T07:13:23.640Z,631.00
2023-03-23T07:14:23.652Z,616.00
2023-03-23T07:15:23.646Z,626.00
2023-03-23T07:16:23.679Z,643.00
2023-03-23T07:17:23.605Z,681.00
2023-03-23T07:18:23.585Z,754.00
2023-03-23T07:19:23.619Z,848.00
2023-03-23T07:20:23.593Z,922.00
2023-03-23T07:21:23.594Z,951.00
2023-03-23T07:22:24.909Z,952.00
2023-03-23T07:23:23.570Z,932.00
2023-03-23T07:24:23.538Z,934.00
2023-03-23T07:25:23.547Z,959.00
2023-03-23T07:26:23.548Z,1000.00
2023-03-23T07:27:23.534Z,1056.00
2023-03-23T07:28:23.572Z,1144.00
2023-03-23T07:29:23.535Z,1261.00
2023-03-23T07:30:23.568Z,1378.00
2023-03-23T07:31:24.526Z,1487.00
2023-03-23T07:32:23.516Z,1589.00
2023-03-23T07:33:23.515Z,1682.00
2023-03-23T07:34:23.509Z,1761.00
2023-03-23T07:35:23.476Z,1853.00
2023-03-23T07:36:23.478Z,1920.00
2023-03-23T07:37:23.485Z,1966.00
2023-03-23T07:38:23.455Z,2027.00
2023-03-23T07:39:23.445Z,2101.00
2023-03-23T07:40:23.512Z,2130.00
2023-03-23T07:41:23.431Z,2105.00
2023-03-23T07:42:23.410Z,2083.00
2023-03-23T07:43:23.425Z,2079.00
2023-03-23T07:44:23.414Z,2121.00
2023-03-23T07:45:23.424Z,2224.00
2023-03-23T07:46:23.458Z,2362.00
2023-03-23T07:47:23.402Z,2398.00
2023-03-23T07:48:24.391Z,2389.00
2023-03-23T07:49:23.354Z,2302.00
2023-03-23T07:50:23.360Z,2301.00
2023-03-23T07:51:23.349Z,2347.00
2023-03-23T07:52:23.366Z,2218.00
2023-03-23T07:53:23.337Z,2096.00
2023-03-23T07:54:23.337Z,2011.00
2023-03-23T07:55:23.484Z,2031.00
2023-03-23T07:56:23.330Z,2169.00
2023-03-23T07:57:23.320Z,2330.00
2023-03-23T07:58:23.385Z,2469.00
2023-03-23T07:59:23.294Z,2456.00
2023-03-23T08:00:23.302Z,2541.00
2023-03-23T08:01:23.274Z,2601.00
2023-03-23T08:02:23.325Z,2543.00
2023-03-23T08:03:23.276Z,2443.00
2023-03-23T08:04:23.304Z,2380.00
2023-03-23T08:05:23.267Z,2382.00
2023-03-23T08:06:23.257Z,2376.00
2023-03-23T08:07:23.234Z,2384.00
2023-03-23T08:08:23.245Z,2388.00
2023-03-23T08:09:23.212Z,2322.00
2023-03-23T08:10:23.283Z,2270.00
2023-03-23T08:11:23.228Z,2245.00
2023-03-23T08:12:23.183Z,2244.00
2023-03-23T08:13:23.261Z,2289.00
2023-03-23T08:14:23.195Z,2332.00
2023-03-23T08:15:23.179Z,2350.00
2023-03-23T08:16:23.201Z,2339.00
2023-03-23T08:17:23.166Z,2312.00
2023-03-23T08:18:23.161Z,2304.00
2023-03-23T08:19:23.185Z,2186.00
2023-03-23T08:20:23.143Z,1966.00
2023-03-23T08:21:23.133Z,1956.00
2023-03-23T08:22:23.223Z,1855.00
2023-03-23T08:23:23.132Z,1933.00
2023-03-23T08:24:23.115Z,1919.00
2023-03-23T08:25:23.099Z,1893.00
2023-03-23T08:26:23.128Z,1997.00
2023-03-23T08:27:23.102Z,2021.00
2023-03-23T08:28:23.427Z,1987.00
2023-03-23T08:29:23.079Z,1908.00
2023-03-23T08:30:23.708Z,1996.00
2023-03-23T08:31:23.057Z,1820.00
2023-03-23T08:32:23.113Z,1671.00
2023-03-23T08:33:23.053Z,1542.00
2023-03-23T08:34:23.080Z,1352.00
2023-03-23T08:35:23.022Z,1370.00
2023-03-23T08:36:23.045Z,1458.00
2023-03-23T08:37:23.014Z,1679.00
2023-03-23T08:38:22.990Z,1862.00
2023-03-23T08:39:23.044Z,2194.00
2023-03-23T08:40:23.080Z,2322.00
2023-03-23T08:41:22.978Z,2426.00
2023-03-23T08:42:23.066Z,2691.00
2023-03-23T08:43:22.997Z,2939.00
2023-03-23T08:44:22.970Z,2982.00
2023-03-23T08:45:22.980Z,3049.00
2023-03-23T08:46:24.045Z,3115.00
2023-03-23T08:47:22.952Z,3088.00
2023-03-23T08:48:22.940Z,2762.00
2023-03-23T08:49:22.927Z,2621.00
2023-03-23T08:50:22.928Z,2621.00
2023-03-23T08:51:22.940Z,2465.00
2023-03-23T08:52:22.956Z,2407.00
2023-03-23T08:53:22.900Z,2594.00
2023-03-23T08:54:22.913Z,2696.00
2023-03-23T08:55:22.874Z,2502.00
2023-03-23T08:56:22.920Z,2437.00
2023-03-23T08:57:22.866Z,2507.00
2023-03-23T08:58:22.917Z,2377.00
2023-03-23T08:59:22.841Z,2130.00
2023-03-23T09:00:22.830Z,2298.00
2023-03-23T09:01:22.846Z,2444.00
2023-03-23T09:02:22.861Z,2486.00
2023-03-23T09:03:22.837Z,2463.00
2023-03-23T09:04:22.841Z,2472.00
2023-03-23T09:05:22.827Z,2583.00
2023-03-23T09:06:22.814Z,2683.00
2023-03-23T09:07:22.827Z,2737.00
2023-03-23T09:08:22.784Z,2700.00
2023-03-23T09:09:22.753Z,2671.00
2023-03-23T09:10:22.864Z,2789.00
2023-03-23T09:11:22.765Z,2867.00
2023-03-23T09:12:22.730Z,2893.00
2023-03-23T09:13:22.792Z,2932.00
2023-03-23T09:14:22.771Z,2909.00
2023-03-23T09:15:32.059Z,2802.00
2023-03-23T09:16:23.739Z,2744.00
2023-03-23T09:17:22.728Z,2796.00
2023-03-23T09:18:22.725Z,2836.00
2023-03-23T09:19:22.693Z,2913.00
2023-03-23T09:20:22.694Z,2932.00
2023-03-23T09:21:22.684Z,2885.00
2023-03-23T09:22:22.755Z,2955.00
2023-03-23T09:23:22.705Z,3009.00
2023-03-23T09:24:22.652Z,2969.00
2023-03-23T09:25:22.671Z,2995.00
2023-03-23T09:26:22.700Z,3039.00
2023-03-23T09:27:22.644Z,3006.00
2023-03-23T09:28:22.687Z,2950.00
2023-03-23T09:29:22.628Z,2856.00
2023-03-23T09:30:22.641Z,2805.00
2023-03-23T09:31:22.602Z,2928.00
2023-03-23T09:32:22.605Z,2871.00
2023-03-23T09:33:22.583Z,2860.00
2023-03-23T09:34:23.032Z,3049.00
2023-03-23T09:35:22.571Z,3059.00
2023-03-23T09:36:22.572Z,2796.00
2023-03-23T09:37:22.573Z,2539.00
2023-03-23T09:38:22.567Z,2367.00
2023-03-23T09:39:22.552Z,2244.00
2023-03-23T09:40:22.646Z,2175.00
2023-03-23T09:41:22.525Z,2150.00
2023-03-23T09:42:22.511Z,2142.00
2023-03-23T09:43:22.538Z,2105.00
2023-03-23T09:44:22.516Z,1942.00
2023-03-23T09:45:22.527Z,1866.00
2023-03-23T09:46:22.546Z,2007.00
2023-03-23T09:47:22.489Z,2151.00
2023-03-23T09:48:22.479Z,2164.00
2023-03-23T09:49:22.475Z,2071.00
2023-03-23T09:50:22.457Z,1818.00
2023-03-23T09:51:22.503Z,1750.00
2023-03-23T09:52:22.545Z,1745.00
2023-03-23T09:53:22.441Z,1725.00
2023-03-23T09:54:22.433Z,1706.00
2023-03-23T09:55:22.458Z,1650.00
2023-03-23T09:56:22.431Z,1578.00
2023-03-23T09:57:22.413Z,1574.00
2023-03-23T09:58:22.517Z,1514.00
2023-03-23T09:59:22.404Z,1431.00
2023-03-23T10:00:22.478Z,1569.00
2023-03-23T10:01:22.402Z,1875.00
2023-03-23T10:02:22.384Z,2097.00
2023-03-23T10:03:22.363Z,2339.00
2023-03-23T10:04:22.494Z,2388.00
2023-03-23T10:05:22.366Z,2149.00
2023-03-23T10:06:22.356Z,1996.00
2023-03-23T10:07:22.357Z,1902.00
2023-03-23T10:08:22.324Z,1487.00
2023-03-23T10:09:22.355Z,1313.00
2023-03-23T10:10:22.344Z,1495.00
2023-03-23T10:11:22.321Z,1990.00
2023-03-23T10:12:22.293Z,2554.00
2023-03-23T10:13:22.315Z,3150.00
2023-03-23T10:14:22.295Z,3490.00
2023-03-23T10:15:22.287Z,3553.00
2023-03-23T10:16:22.336Z,3293.00
2023-03-23T10:17:22.362Z,2593.00
2023-03-23T10:18:22.257Z,2239.00
2023-03-23T10:19:22.252Z,2163.00
2023-03-23T10:20:22.256Z,2268.00
2023-03-23T10:21:22.242Z,2418.00
2023-03-23T10:22:22.295Z,2307.00
2023-03-23T10:23:22.246Z,2050.00
2023-03-23T10:24:22.226Z,1803.00
2023-03-23T10:25:22.195Z,1691.00
2023-03-23T10:26:22.230Z,1885.00
2023-03-23T10:27:22.185Z,2328.00
2023-03-23T10:28:22.234Z,2702.00
2023-03-23T10:29:22.218Z,2628.00
2023-03-23T10:30:22.176Z,2158.00
2023-03-23T10:31:22.169Z,1838.00
2023-03-23T10:32:22.156Z,1692.00
2023-03-23T10:33:22.174Z,1628.00
2023-03-23T10:34:22.366Z,1651.00
2023-03-23T10:35:22.125Z,1613.00
2023-03-23T10:36:22.825Z,1657.00
2023-03-23T10:37:22.116Z,1882.00
2023-03-23T10:38:22.115Z,2106.00
2023-03-23T10:39:22.095Z,2329.00
2023-03-23T10:40:22.193Z,2264.00
2023-03-23T10:41:22.097Z,2503.00
2023-03-23T10:42:22.087Z,3018.00
2023-03-23T10:43:22.067Z,3317.00
2023-03-23T10:44:22.070Z,3615.00
2023-03-23T10:45:22.083Z,3905.00
2023-03-23T10:46:31.608Z,4101.00
2023-03-23T10:47:23.035Z,4428.00
2023-03-23T10:48:22.057Z,4800.00
2023-03-23T10:49:22.015Z,5085.00
2023-03-23T10:50:22.031Z,5158.00
2023-03-23T10:51:22.048Z,5034.00
2023-03-23T10:52:22.068Z,5071.00
2023-03-23T10:53:22.009Z,5078.00
2023-03-23T10:54:21.995Z,5169.00
2023-03-23T10:55:22.007Z,5233.00
2023-03-23T10:56:21.998Z,5562.00
2023-03-23T10:57:21.994Z,5214.00
2023-03-23T10:58:22.031Z,4891.00
2023-03-23T10:59:21.987Z,4350.00
2023-03-23T11:00:22.082Z,3882.00
2023-03-23T11:01:21.927Z,4007.00
2023-03-23T11:02:29.331Z,4343.00
2023-03-23T11:03:22.947Z,4600.00
2023-03-23T11:04:21.954Z,4773.00
2023-03-23T11:05:24.052Z,4748.00
2023-03-23T11:06:21.934Z,4496.00
2023-03-23T11:07:21.894Z,4336.00
2023-03-23T11:08:22.720Z,4012.00
2023-03-23T11:09:21.909Z,4048.00
2023-03-23T11:10:21.953Z,4045.00
2023-03-23T11:11:21.855Z,3842.00
2023-03-23T11:12:21.882Z,3282.00
2023-03-23T11:13:21.852Z,3124.00
2023-03-23T11:14:21.862Z,3043.00
2023-03-23T11:15:21.882Z,2808.00
2023-03-23T11:16:21.889Z,2485.00
2023-03-23T11:17:21.833Z,2404.00
2023-03-23T11:18:21.826Z,2296.00
2023-03-23T11:19:21.798Z,2066.00
2023-03-23T11:20:21.855Z,1963.00
2023-03-23T11:21:21.868Z,1986.00
2023-03-23T11:22:21.783Z,1961.00
2023-03-23T11:23:21.792Z,2152.00
2023-03-23T11:24:21.835Z,2312.00
2023-03-23T11:25:21.768Z,2284.00
2023-03-23T11:26:21.749Z,2533.00
2023-03-23T11:27:21.778Z,2824.00
2023-03-23T11:28:21.762Z,2636.00
2023-03-23T11:29:21.729Z,2488.00
2023-03-23T11:30:21.729Z,2261.00
2023-03-23T11:31:21.711Z,2084.00
2023-03-23T11:32:21.704Z,2116.00
2023-03-23T11:33:21.732Z,2117.00
2023-03-23T11:34:21.702Z,2302.00
2023-03-23T11:35:21.702Z,2405.00
2023-03-23T11:36:21.769Z,2384.00
2023-03-23T11:37:21.695Z,2077.00
2023-03-23T11:38:21.666Z,1917.00
2023-03-23T11:39:21.895Z,2112.00
2023-03-23T11:40:21.665Z,2275.00
2023-03-23T11:41:21.701Z,2183.00
2023-03-23T11:42:21.634Z,2071.00
2023-03-23T11:43:21.639Z,1977.00
2023-03-23T11:44:21.621Z,2391.00
2023-03-23T11:45:21.669Z,2562.00
2023-03-23T11:46:21.604Z,2394.00
2023-03-23T11:47:21.598Z,2086.00
2023-03-23T11:48:21.575Z,1810.00
2023-03-23T11:49:25.740Z,1782.00
2023-03-23T11:50:22.647Z,1987.00
2023-03-23T11:51:21.603Z,2130.00
2023-03-23T11:52:21.583Z,2173.00
2023-03-23T11:53:21.622Z,1997.00
2023-03-23T11:54:21.627Z,1666.00
2023-03-23T11:55:21.665Z,1463.00
2023-03-23T11:56:21.571Z,1419.00
2023-03-23T11:57:21.509Z,1822.00
2023-03-23T11:58:21.507Z,2100.00
2023-03-23T11:59:21.513Z,2445.00
2023-03-23T12:00:21.507Z,2848.00
2023-03-23T12:01:21.527Z,3177.00
2023-03-23T12:02:23.530Z,3051.00
2023-03-23T12:03:21.517Z,2718.00
2023-03-23T12:04:21.576Z,2507.00
2023-03-23T12:05:21.459Z,2247.00
2023-03-23T12:06:21.496Z,1972.00
2023-03-23T12:07:21.471Z,1798.00
2023-03-23T12:08:21.638Z,1760.00
2023-03-23T12:09:21.447Z,1860.00
2023-03-23T12:10:30.405Z,2038.00
2023-03-23T12:11:22.400Z,2412.00
2023-03-23T12:12:21.523Z,2742.00
2023-03-23T12:13:21.423Z,3055.00
2023-03-23T12:14:25.161Z,3378.00
2023-03-23T12:15:21.445Z,3695.00
2023-03-23T12:16:21.467Z,3738.00
2023-03-23T12:17:21.443Z,3834.00
2023-03-23T12:18:21.424Z,3966.00
2023-03-23T12:19:21.381Z,4003.00
2023-03-23T12:20:22.542Z,3886.00
2023-03-23T12:21:21.402Z,3700.00
2023-03-23T12:22:21.362Z,3429.00
2023-03-23T12:23:21.310Z,3305.00
2023-03-23T12:24:21.322Z,3374.00
2023-03-23T12:25:21.372Z,3608.00
2023-03-23T12:26:21.337Z,3444.00
2023-03-23T12:27:21.292Z,3496.00
2023-03-23T12:28:21.371Z,3533.00
2023-03-23T12:29:21.333Z,3560.00
2023-03-23T12:30:21.334Z,3458.00
2023-03-23T12:31:21.262Z,3300.00
2023-03-23T12:32:21.283Z,3240.00
2023-03-23T12:33:21.320Z,3270.00
2023-03-23T12:34:21.307Z,3312.00
2023-03-23T12:35:24.087Z,3201.00
2023-03-23T12:36:21.322Z,3127.00
2023-03-23T12:37:22.284Z,3076.00
2023-03-23T12:38:21.295Z,3094.00
2023-03-23T12:39:21.214Z,3200.00